TimeEST,TemperatureF,Dew PointF,Humidity,Sea Level PressureIn,VisibilityMPH,Wind Direction,Wind SpeedMPH,Gust SpeedMPH,PrecipitationIn,Events,Conditions,WindDirDegrees,DateUTC
12:53 AM,37.0,36.0,96,30.19,10.0,Calm,Calm,-,N/A,,Clear,0,2012-11-23 05:53:00
1:53 AM,36.0,33.1,89,30.19,10.0,Calm,Calm,-,N/A,,Clear,0,2012-11-23 06:53:00
2:53 AM,35.1,33.1,92,30.18,10.0,Calm,Calm,-,N/A,,Clear,0,2012-11-23 07:53:00
3:53 AM,35.1,34.0,96,30.18,10.0,Calm,Calm,-,N/A,,Clear,0,2012-11-23 08:53:00
4:53 AM,33.1,30.9,92,30.17,10.0,Calm,Calm,-,N/A,,Clear,0,2012-11-23 09:53:00
5:53 AM,33.1,30.9,92,30.19,10.0,Calm,Calm,-,N/A,,Clear,0,2012-11-23 10:53:00
6:53 AM,34.0,32.0,92,30.22,10.0,Calm,Calm,-,N/A,,Clear,0,2012-11-23 11:53:00
7:53 AM,37.0,35.1,93,30.23,10.0,Calm,Calm,-,N/A,,Clear,0,2012-11-23 12:53:00
8:53 AM,51.1,41.0,68,30.24,10.0,Calm,Calm,-,N/A,,Clear,0,2012-11-23 13:53:00
9:53 AM,64.0,39.0,40,30.25,10.0,NNE,4.6,-,N/A,,Clear,20,2012-11-23 14:53:00
10:53 AM,68.0,36.0,31,30.25,10.0,Variable,4.6,-,N/A,,Clear,0,2012-11-23 15:53:00
11:53 AM,70.0,36.0,29,30.22,10.0,Calm,Calm,-,N/A,,Clear,0,2012-11-23 16:53:00
12:53 PM,73.0,37.0,27,30.18,10.0,North,11.5,16.1,N/A,,Clear,10,2012-11-23 17:53:00
1:53 PM,73.0,39.0,29,30.15,10.0,NW,11.5,-,N/A,,Clear,320,2012-11-23 18:53:00
2:53 PM,72.0,37.9,29,30.13,10.0,NW,9.2,16.1,N/A,,Clear,310,2012-11-23 19:53:00
3:53 PM,71.1,37.9,30,30.12,10.0,WNW,10.4,-,N/A,,Clear,300,2012-11-23 20:53:00
4:53 PM,66.9,39.0,36,30.12,10.0,WNW,10.4,-,N/A,,Clear,300,2012-11-23 21:53:00
5:53 PM,60.1,42.1,51,30.13,10.0,West,5.8,-,N/A,,Clear,270,2012-11-23 22:53:00
6:53 PM,51.1,41.0,68,-9999,10.0,Calm,Calm,-,N/A,,Clear,0,2012-11-23 23:53:00
7:53 PM,46.0,41.0,83,-9999,10.0,Calm,Calm,-,N/A,,Clear,0,2012-11-24 00:53:00
8:53 PM,44.1,39.9,85,-9999,10.0,Calm,Calm,-,N/A,,Clear,0,2012-11-24 01:53:00
9:53 PM,43.0,39.9,89,-9999,10.0,Calm,Calm,-,N/A,,Clear,0,2012-11-24 02:53:00
10:53 PM,44.1,42.1,93,-9999,10.0,Calm,Calm,-,N/A,,Clear,0,2012-11-24 03:53:00
11:53 PM,42.1,39.0,89,-9999,10.0,Calm,Calm,-,N/A,,Clear,0,2012-11-24 04:53:00